Bellview, Florida
Current Conditions -  °F | °C
As of 6:56 AM on Thursday 30 Oct 2014 (Local Time) from KNPA Reporting Station
Broken Clouds Broken Clouds  
Wind Chill: 61°   Ceiling: 9000
Heat Index: 61°   Visibility: 10mi
Dew Point: 52°   Wind: 9mph
Humidity: 72%   Direction: 20°NNE
Pressure: 30.04"   Gusts: NA
Location:  30.46°N, 87.31°W
Report Text: KNPA 301156Z 02008KT 10SM SCT050 BKN090 16/11 A3004 RMK AO2 SLP174 70001 T01610111 10194 20161 53010 $
Loading
Personal Weather Stations






























Interactive Weather Map
Tropical Storm Tracking
New forecast layout! Learn more

10-Day Weather Forecast

Advertisements
Track Severe Weather on mobile